sensor_id;sensor_type;location;lat;lon;timestamp;P1;durP1;ratioP1;P2;durP2;ratioP2
33459;SDS011;19795;53.160;6.612;2022-11-20T06:32:41;15.85;;;8.02;;
33459;SDS011;19795;53.160;6.612;2022-11-20T06:37:43;14.10;;;8.30;;
33459;SDS011;19795;53.160;6.612;2022-11-20T06:40:08;14.02;;;8.52;;
33459;SDS011;19795;53.160;6.612;2022-11-20T06:42:35;14.85;;;8.18;;
33459;SDS011;19795;53.160;6.612;2022-11-20T06:45:00;16.02;;;8.27;;
33459;SDS011;19795;53.160;6.612;2022-11-20T06:47:26;13.88;;;8.73;;
33459;SDS011;19795;53.160;6.612;2022-11-20T06:49:51;12.55;;;8.18;;
33459;SDS011;19795;53.160;6.612;2022-11-20T06:52:17;13.65;;;8.25;;
33459;SDS011;19795;53.160;6.612;2022-11-20T06:54:44;14.55;;;8.07;;
33459;SDS011;19795;53.160;6.612;2022-11-20T06:57:09;12.85;;;7.80;;
33459;SDS011;19795;53.160;6.612;2022-11-20T06:59:35;13.30;;;7.68;;
33459;SDS011;19795;53.160;6.612;2022-11-20T07:02:00;15.90;;;8.10;;
33459;SDS011;19795;53.160;6.612;2022-11-20T07:04:26;17.15;;;9.23;;
33459;SDS011;19795;53.160;6.612;2022-11-20T07:06:51;14.93;;;8.48;;
33459;SDS011;19795;53.160;6.612;2022-11-20T07:09:17;14.55;;;8.55;;
33459;SDS011;19795;53.160;6.612;2022-11-20T07:11:45;12.38;;;7.55;;
33459;SDS011;19795;53.160;6.612;2022-11-20T07:14:11;13.70;;;7.75;;
33459;SDS011;19795;53.160;6.612;2022-11-20T07:16:36;13.38;;;8.18;;
33459;SDS011;19795;53.160;6.612;2022-11-20T07:19:02;11.88;;;7.25;;
33459;SDS011;19795;53.160;6.612;2022-11-20T07:21:28;12.32;;;7.20;;
33459;SDS011;19795;53.160;6.612;2022-11-20T07:23:53;13.48;;;7.70;;
33459;SDS011;19795;53.160;6.612;2022-11-20T07:26:19;13.93;;;7.45;;
33459;SDS011;19795;53.160;6.612;2022-11-20T07:28:45;14.35;;;7.32;;
33459;SDS011;19795;53.160;6.612;2022-11-20T07:31:11;13.68;;;7.68;;
33459;SDS011;19795;53.160;6.612;2022-11-20T07:33:37;14.25;;;7.85;;
33459;SDS011;19795;53.160;6.612;2022-11-20T07:36:03;15.10;;;7.65;;
33459;SDS011;19795;53.160;6.612;2022-11-20T07:38:29;11.63;;;6.55;;
33459;SDS011;19795;53.160;6.612;2022-11-20T07:40:56;12.15;;;7.32;;
33459;SDS011;19795;53.160;6.612;2022-11-20T07:43:26;11.40;;;7.28;;
33459;SDS011;19795;53.160;6.612;2022-11-20T07:45:54;14.27;;;7.80;;
33459;SDS011;19795;53.160;6.612;2022-11-20T07:48:21;12.13;;;7.13;;
33459;SDS011;19795;53.160;6.612;2022-11-20T07:50:47;13.70;;;7.88;;
33459;SDS011;19795;53.160;6.612;2022-11-20T07:53:12;12.25;;;7.13;;
33459;SDS011;19795;53.160;6.612;2022-11-20T07:55:39;13.77;;;7.97;;
33459;SDS011;19795;53.160;6.612;2022-11-20T07:58:05;15.00;;;7.93;;
33459;SDS011;19795;53.160;6.612;2022-11-20T08:00:30;12.52;;;7.63;;
33459;SDS011;19795;53.160;6.612;2022-11-20T08:02:56;10.98;;;7.32;;
33459;SDS011;19795;53.160;6.612;2022-11-20T08:05:22;13.73;;;7.80;;
33459;SDS011;19795;53.160;6.612;2022-11-20T08:07:47;14.40;;;7.72;;
33459;SDS011;19795;53.160;6.612;2022-11-20T08:10:14;13.55;;;7.75;;
33459;SDS011;19795;53.160;6.612;2022-11-20T08:12:51;12.40;;;7.43;;
33459;SDS011;19795;53.160;6.612;2022-11-20T08:15:36;13.00;;;7.40;;
33459;SDS011;19795;53.160;6.612;2022-11-20T08:18:04;12.45;;;7.82;;
33459;SDS011;19795;53.160;6.612;2022-11-20T08:20:35;12.65;;;7.78;;
33459;SDS011;19795;53.160;6.612;2022-11-20T08:23:02;11.88;;;7.30;;
33459;SDS011;19795;53.160;6.612;2022-11-20T08:25:30;14.02;;;7.95;;
33459;SDS011;19795;53.160;6.612;2022-11-20T08:28:01;16.25;;;8.63;;
33459;SDS011;19795;53.160;6.612;2022-11-20T08:30:28;14.73;;;8.05;;
33459;SDS011;19795;53.160;6.612;2022-11-20T08:32:54;13.40;;;8.00;;
33459;SDS011;19795;53.160;6.612;2022-11-20T08:35:26;15.18;;;7.82;;
33459;SDS011;19795;53.160;6.612;2022-11-20T08:37:57;15.13;;;8.55;;
33459;SDS011;19795;53.160;6.612;2022-11-20T08:40:23;15.00;;;7.90;;
33459;SDS011;19795;53.160;6.612;2022-11-20T08:42:49;15.05;;;7.93;;
33459;SDS011;19795;53.160;6.612;2022-11-20T08:45:16;15.15;;;8.65;;
33459;SDS011;19795;53.160;6.612;2022-11-20T08:47:43;12.55;;;7.78;;
33459;SDS011;19795;53.160;6.612;2022-11-20T08:50:10;14.65;;;8.23;;
33459;SDS011;19795;53.160;6.612;2022-11-20T08:52:37;16.15;;;8.70;;
33459;SDS011;19795;53.160;6.612;2022-11-20T08:55:03;15.88;;;9.30;;
33459;SDS011;19795;53.160;6.612;2022-11-20T08:57:33;15.70;;;9.93;;
33459;SDS011;19795;53.160;6.612;2022-11-20T08:59:59;13.13;;;7.85;;
33459;SDS011;19795;53.160;6.612;2022-11-20T09:02:25;16.45;;;9.07;;
33459;SDS011;19795;53.160;6.612;2022-11-20T09:04:51;13.48;;;7.80;;
33459;SDS011;19795;53.160;6.612;2022-11-20T09:07:18;14.65;;;8.00;;
33459;SDS011;19795;53.160;6.612;2022-11-20T09:09:44;15.00;;;8.13;;
33459;SDS011;19795;53.160;6.612;2022-11-20T09:12:09;13.90;;;8.15;;
33459;SDS011;19795;53.160;6.612;2022-11-20T09:14:35;13.80;;;7.80;;
33459;SDS011;19795;53.160;6.612;2022-11-20T09:17:00;12.35;;;7.57;;
33459;SDS011;19795;53.160;6.612;2022-11-20T09:19:26;13.27;;;7.38;;
33459;SDS011;19795;53.160;6.612;2022-11-20T09:21:52;12.18;;;7.30;;
33459;SDS011;19795;53.160;6.612;2022-11-20T09:24:18;14.10;;;7.60;;
33459;SDS011;19795;53.160;6.612;2022-11-20T09:26:45;13.93;;;7.90;;
33459;SDS011;19795;53.160;6.612;2022-11-20T09:29:11;15.30;;;8.00;;
33459;SDS011;19795;53.160;6.612;2022-11-20T09:31:37;12.93;;;7.72;;
33459;SDS011;19795;53.160;6.612;2022-11-20T09:34:02;11.68;;;7.47;;
33459;SDS011;19795;53.160;6.612;2022-11-20T09:36:28;13.02;;;7.40;;
33459;SDS011;19795;53.160;6.612;2022-11-20T09:38:54;12.68;;;7.38;;
33459;SDS011;19795;53.160;6.612;2022-11-20T09:46:58;14.75;;;7.40;;
33459;SDS011;19795;53.160;6.612;2022-11-20T09:51:57;12.35;;;7.50;;
33459;SDS011;19795;53.160;6.612;2022-11-20T09:54:29;12.25;;;7.40;;
33459;SDS011;19795;53.160;6.612;2022-11-20T10:02:00;12.10;;;6.70;;
33459;SDS011;19795;53.160;6.612;2022-11-20T10:04:31;11.27;;;6.60;;
33459;SDS011;19795;53.160;6.612;2022-11-20T10:07:04;13.00;;;7.40;;
33459;SDS011;19795;53.160;6.612;2022-11-20T10:09:39;12.48;;;6.78;;
33459;SDS011;19795;53.160;6.612;2022-11-20T10:14:52;12.13;;;6.80;;
33459;SDS011;19795;53.160;6.612;2022-11-20T10:22:52;12.25;;;7.40;;
33459;SDS011;19795;53.160;6.612;2022-11-20T10:25:39;12.10;;;7.25;;
33459;SDS011;19795;53.160;6.612;2022-11-20T10:30:42;11.52;;;6.93;;
33459;SDS011;19795;53.160;6.612;2022-11-20T10:33:17;10.95;;;7.28;;
33459;SDS011;19795;53.160;6.612;2022-11-20T10:36:04;11.63;;;6.88;;
33459;SDS011;19795;53.160;6.612;2022-11-20T10:38:57;11.77;;;6.68;;
33459;SDS011;19795;53.160;6.612;2022-11-20T10:41:27;13.05;;;6.60;;
33459;SDS011;19795;53.160;6.612;2022-11-20T10:44:00;11.60;;;7.10;;
33459;SDS011;19795;53.160;6.612;2022-11-20T10:46:38;12.10;;;6.80;;
33459;SDS011;19795;53.160;6.612;2022-11-20T10:49:19;11.40;;;6.97;;
33459;SDS011;19795;53.160;6.612;2022-11-20T10:52:00;12.23;;;7.47;;
33459;SDS011;19795;53.160;6.612;2022-11-20T10:54:41;10.45;;;6.45;;
33459;SDS011;19795;53.160;6.612;2022-11-20T11:00:05;10.95;;;6.15;;
33459;SDS011;19795;53.160;6.612;2022-11-20T11:05:14;10.55;;;5.65;;
33459;SDS011;19795;53.160;6.612;2022-11-20T11:07:52;12.45;;;6.53;;
33459;SDS011;19795;53.160;6.612;2022-11-20T11:10:22;10.82;;;6.38;;
33459;SDS011;19795;53.160;6.612;2022-11-20T11:12:52;9.90;;;5.90;;
33459;SDS011;19795;53.160;6.612;2022-11-20T11:15:38;11.75;;;6.45;;
33459;SDS011;19795;53.160;6.612;2022-11-20T11:18:22;10.55;;;6.47;;
33459;SDS011;19795;53.160;6.612;2022-11-20T11:20:49;9.23;;;5.88;;
33459;SDS011;19795;53.160;6.612;2022-11-20T11:26:03;10.13;;;6.07;;
33459;SDS011;19795;53.160;6.612;2022-11-20T11:28:31;10.77;;;6.38;;
33459;SDS011;19795;53.160;6.612;2022-11-20T11:30:57;10.90;;;6.05;;
33459;SDS011;19795;53.160;6.612;2022-11-20T11:35:53;12.90;;;7.03;;
33459;SDS011;19795;53.160;6.612;2022-11-20T11:41:02;12.15;;;7.47;;
33459;SDS011;19795;53.160;6.612;2022-11-20T11:43:33;12.68;;;6.75;;
33459;SDS011;19795;53.160;6.612;2022-11-20T11:57:59;12.45;;;7.18;;
33459;SDS011;19795;53.160;6.612;2022-11-20T12:04:54;11.85;;;6.38;;
33459;SDS011;19795;53.160;6.612;2022-11-20T12:07:33;11.35;;;6.30;;
33459;SDS011;19795;53.160;6.612;2022-11-20T12:10:19;10.30;;;6.18;;
33459;SDS011;19795;53.160;6.612;2022-11-20T12:13:04;11.00;;;6.40;;
33459;SDS011;19795;53.160;6.612;2022-11-20T12:15:40;9.98;;;5.63;;
33459;SDS011;19795;53.160;6.612;2022-11-20T12:18:14;8.32;;;5.25;;
33459;SDS011;19795;53.160;6.612;2022-11-20T12:20:45;9.00;;;5.30;;
33459;SDS011;19795;53.160;6.612;2022-11-20T12:23:34;8.07;;;4.72;;
33459;SDS011;19795;53.160;6.612;2022-11-20T12:26:16;7.07;;;4.07;;
33459;SDS011;19795;53.160;6.612;2022-11-20T12:40:24;8.13;;;4.50;;
33459;SDS011;19795;53.160;6.612;2022-11-20T12:48:49;9.10;;;4.95;;
33459;SDS011;19795;53.160;6.612;2022-11-20T12:57:09;8.20;;;4.78;;
33459;SDS011;19795;53.160;6.612;2022-11-20T13:07:44;7.25;;;4.35;;
33459;SDS011;19795;53.160;6.612;2022-11-20T13:10:13;7.72;;;3.97;;
33459;SDS011;19795;53.160;6.612;2022-11-20T13:12:56;8.60;;;4.43;;
33459;SDS011;19795;53.160;6.612;2022-11-20T13:15:35;7.22;;;4.28;;
33459;SDS011;19795;53.160;6.612;2022-11-20T13:18:10;7.68;;;4.13;;
33459;SDS011;19795;53.160;6.612;2022-11-20T13:20:41;7.38;;;4.30;;
33459;SDS011;19795;53.160;6.612;2022-11-20T13:23:22;6.78;;;4.35;;
33459;SDS011;19795;53.160;6.612;2022-11-20T13:26:06;8.55;;;4.50;;
33459;SDS011;19795;53.160;6.612;2022-11-20T13:28:41;11.27;;;5.00;;
33459;SDS011;19795;53.160;6.612;2022-11-20T13:31:23;10.20;;;5.05;;
33459;SDS011;19795;53.160;6.612;2022-11-20T13:33:54;8.73;;;5.15;;
33459;SDS011;19795;53.160;6.612;2022-11-20T13:36:22;8.15;;;4.82;;
33459;SDS011;19795;53.160;6.612;2022-11-20T13:38:51;7.93;;;4.25;;
33459;SDS011;19795;53.160;6.612;2022-11-20T13:41:29;22.20;;;10.25;;
33459;SDS011;19795;53.160;6.612;2022-11-20T13:46:51;10.77;;;6.30;;
33459;SDS011;19795;53.160;6.612;2022-11-20T13:49:25;11.25;;;6.78;;
33459;SDS011;19795;53.160;6.612;2022-11-20T13:55:12;9.88;;;5.75;;
33459;SDS011;19795;53.160;6.612;2022-11-20T14:00:19;8.90;;;5.57;;
33459;SDS011;19795;53.160;6.612;2022-11-20T14:05:40;9.93;;;5.53;;
33459;SDS011;19795;53.160;6.612;2022-11-20T14:08:23;12.38;;;6.68;;
33459;SDS011;19795;53.160;6.612;2022-11-20T14:11:04;14.63;;;8.27;;
33459;SDS011;19795;53.160;6.612;2022-11-20T14:13:37;12.60;;;7.43;;
33459;SDS011;19795;53.160;6.612;2022-11-20T14:16:03;10.23;;;5.63;;
33459;SDS011;19795;53.160;6.612;2022-11-20T14:18:28;10.70;;;5.75;;
33459;SDS011;19795;53.160;6.612;2022-11-20T14:20:54;10.23;;;6.30;;
33459;SDS011;19795;53.160;6.612;2022-11-20T14:23:27;15.85;;;6.65;;
33459;SDS011;19795;53.160;6.612;2022-11-20T14:25:53;14.65;;;7.28;;
33459;SDS011;19795;53.160;6.612;2022-11-20T14:28:22;24.77;;;11.13;;
33459;SDS011;19795;53.160;6.612;2022-11-20T14:30:51;15.13;;;7.22;;
33459;SDS011;19795;53.160;6.612;2022-11-20T14:33:17;8.43;;;5.22;;
33459;SDS011;19795;53.160;6.612;2022-11-20T14:35:48;9.23;;;5.10;;
33459;SDS011;19795;53.160;6.612;2022-11-20T14:38:16;8.98;;;4.70;;
33459;SDS011;19795;53.160;6.612;2022-11-20T14:40:43;10.32;;;5.32;;
33459;SDS011;19795;53.160;6.612;2022-11-20T14:43:44;11.10;;;5.35;;
33459;SDS011;19795;53.160;6.612;2022-11-20T14:46:03;10.27;;;5.38;;
33459;SDS011;19795;53.160;6.612;2022-11-20T14:49:05;8.82;;;5.18;;
33459;SDS011;19795;53.160;6.612;2022-11-20T14:51:36;9.82;;;6.20;;
33459;SDS011;19795;53.160;6.612;2022-11-20T14:56:42;12.80;;;6.22;;
33459;SDS011;19795;53.160;6.612;2022-11-20T14:59:25;9.50;;;5.95;;
33459;SDS011;19795;53.160;6.612;2022-11-20T15:04:29;12.32;;;6.38;;
33459;SDS011;19795;53.160;6.612;2022-11-20T15:06:55;10.93;;;6.15;;
33459;SDS011;19795;53.160;6.612;2022-11-20T15:09:22;11.02;;;6.55;;
33459;SDS011;19795;53.160;6.612;2022-11-20T15:11:53;12.27;;;6.50;;
33459;SDS011;19795;53.160;6.612;2022-11-20T15:14:21;11.45;;;6.50;;
33459;SDS011;19795;53.160;6.612;2022-11-20T15:16:47;12.25;;;6.88;;
33459;SDS011;19795;53.160;6.612;2022-11-20T15:19:17;14.77;;;7.85;;
33459;SDS011;19795;53.160;6.612;2022-11-20T15:21:48;16.00;;;8.02;;
33459;SDS011;19795;53.160;6.612;2022-11-20T15:24:14;12.15;;;6.90;;
33459;SDS011;19795;53.160;6.612;2022-11-20T15:26:40;13.88;;;7.53;;
33459;SDS011;19795;53.160;6.612;2022-11-20T15:29:10;13.52;;;7.32;;
33459;SDS011;19795;53.160;6.612;2022-11-20T15:31:37;13.88;;;7.65;;
33459;SDS011;19795;53.160;6.612;2022-11-20T15:34:12;14.77;;;7.75;;
33459;SDS011;19795;53.160;6.612;2022-11-20T15:36:40;11.45;;;6.15;;
33459;SDS011;19795;53.160;6.612;2022-11-20T15:39:06;11.57;;;6.63;;
33459;SDS011;19795;53.160;6.612;2022-11-20T15:41:36;13.68;;;7.47;;
33459;SDS011;19795;53.160;6.612;2022-11-20T15:44:03;13.30;;;7.25;;
33459;SDS011;19795;53.160;6.612;2022-11-20T15:46:30;14.13;;;7.88;;
33459;SDS011;19795;53.160;6.612;2022-11-20T15:49:02;13.32;;;7.55;;
33459;SDS011;19795;53.160;6.612;2022-11-20T15:51:30;13.52;;;7.60;;
33459;SDS011;19795;53.160;6.612;2022-11-20T15:53:58;13.00;;;6.75;;
33459;SDS011;19795;53.160;6.612;2022-11-20T15:56:24;15.07;;;8.52;;
33459;SDS011;19795;53.160;6.612;2022-11-20T15:58:50;17.08;;;7.93;;
33459;SDS011;19795;53.160;6.612;2022-11-20T16:01:17;13.80;;;7.50;;
33459;SDS011;19795;53.160;6.612;2022-11-20T16:03:44;14.15;;;8.07;;
33459;SDS011;19795;53.160;6.612;2022-11-20T16:06:10;12.57;;;7.15;;
33459;SDS011;19795;53.160;6.612;2022-11-20T16:08:36;15.52;;;6.78;;
33459;SDS011;19795;53.160;6.612;2022-11-20T16:11:02;13.27;;;7.18;;
33459;SDS011;19795;53.160;6.612;2022-11-20T16:13:30;12.82;;;7.70;;
33459;SDS011;19795;53.160;6.612;2022-11-20T16:16:33;13.85;;;7.78;;
33459;SDS011;19795;53.160;6.612;2022-11-20T16:19:00;16.23;;;8.07;;
33459;SDS011;19795;53.160;6.612;2022-11-20T16:21:26;15.38;;;8.52;;
33459;SDS011;19795;53.160;6.612;2022-11-20T16:23:57;17.40;;;8.98;;
33459;SDS011;19795;53.160;6.612;2022-11-20T16:26:26;17.88;;;9.00;;
33459;SDS011;19795;53.160;6.612;2022-11-20T16:28:52;13.18;;;7.35;;
33459;SDS011;19795;53.160;6.612;2022-11-20T16:31:19;16.85;;;9.13;;
33459;SDS011;19795;53.160;6.612;2022-11-20T16:33:49;15.40;;;8.23;;
33459;SDS011;19795;53.160;6.612;2022-11-20T16:36:16;15.10;;;8.27;;
33459;SDS011;19795;53.160;6.612;2022-11-20T16:38:42;18.00;;;8.32;;
33459;SDS011;19795;53.160;6.612;2022-11-20T16:41:08;15.98;;;7.22;;
33459;SDS011;19795;53.160;6.612;2022-11-20T16:43:59;14.32;;;7.68;;
33459;SDS011;19795;53.160;6.612;2022-11-20T16:46:26;15.60;;;7.95;;
33459;SDS011;19795;53.160;6.612;2022-11-20T16:48:57;14.98;;;6.93;;
33459;SDS011;19795;53.160;6.612;2022-11-20T16:51:36;15.43;;;8.18;;
33459;SDS011;19795;53.160;6.612;2022-11-20T16:54:03;16.25;;;8.65;;
33459;SDS011;19795;53.160;6.612;2022-11-20T16:56:29;13.73;;;6.35;;
33459;SDS011;19795;53.160;6.612;2022-11-20T16:58:55;14.85;;;7.68;;
33459;SDS011;19795;53.160;6.612;2022-11-20T17:01:23;15.50;;;7.97;;
33459;SDS011;19795;53.160;6.612;2022-11-20T17:04:00;12.98;;;7.35;;
33459;SDS011;19795;53.160;6.612;2022-11-20T17:06:34;16.65;;;7.68;;
33459;SDS011;19795;53.160;6.612;2022-11-20T17:11:27;12.13;;;7.07;;
33459;SDS011;19795;53.160;6.612;2022-11-20T17:13:54;16.10;;;8.63;;
33459;SDS011;19795;53.160;6.612;2022-11-20T17:16:21;16.63;;;8.52;;
33459;SDS011;19795;53.160;6.612;2022-11-20T17:18:48;14.90;;;7.82;;
33459;SDS011;19795;53.160;6.612;2022-11-20T17:21:14;15.48;;;8.15;;
33459;SDS011;19795;53.160;6.612;2022-11-20T17:23:42;13.80;;;7.55;;
33459;SDS011;19795;53.160;6.612;2022-11-20T17:26:10;13.40;;;8.10;;
33459;SDS011;19795;53.160;6.612;2022-11-20T17:28:36;15.50;;;8.27;;
33459;SDS011;19795;53.160;6.612;2022-11-20T17:31:06;17.75;;;9.52;;
33459;SDS011;19795;53.160;6.612;2022-11-20T17:33:37;17.15;;;8.65;;
33459;SDS011;19795;53.160;6.612;2022-11-20T17:36:04;15.27;;;8.23;;
33459;SDS011;19795;53.160;6.612;2022-11-20T17:38:31;14.27;;;7.05;;
33459;SDS011;19795;53.160;6.612;2022-11-20T17:41:04;16.20;;;9.05;;
33459;SDS011;19795;53.160;6.612;2022-11-20T17:43:32;12.85;;;5.60;;
33459;SDS011;19795;53.160;6.612;2022-11-20T17:46:02;15.02;;;8.55;;
33459;SDS011;19795;53.160;6.612;2022-11-20T17:48:32;15.15;;;8.68;;
33459;SDS011;19795;53.160;6.612;2022-11-20T17:50:59;14.07;;;7.78;;
33459;SDS011;19795;53.160;6.612;2022-11-20T17:53:26;10.90;;;5.35;;
33459;SDS011;19795;53.160;6.612;2022-11-20T17:55:53;15.82;;;9.02;;
33459;SDS011;19795;53.160;6.612;2022-11-20T17:58:38;17.60;;;9.18;;
33459;SDS011;19795;53.160;6.612;2022-11-20T18:01:05;13.52;;;7.38;;
33459;SDS011;19795;53.160;6.612;2022-11-20T18:03:31;17.48;;;8.82;;
33459;SDS011;19795;53.160;6.612;2022-11-20T18:05:57;18.02;;;10.00;;
33459;SDS011;19795;53.160;6.612;2022-11-20T18:08:22;14.82;;;6.25;;
33459;SDS011;19795;53.160;6.612;2022-11-20T18:10:48;13.75;;;6.28;;
33459;SDS011;19795;53.160;6.612;2022-11-20T18:13:13;16.13;;;7.75;;
33459;SDS011;19795;53.160;6.612;2022-11-20T18:15:39;18.00;;;9.65;;
33459;SDS011;19795;53.160;6.612;2022-11-20T18:18:05;15.95;;;9.13;;
33459;SDS011;19795;53.160;6.612;2022-11-20T18:20:30;16.80;;;9.55;;
33459;SDS011;19795;53.160;6.612;2022-11-20T18:22:56;14.85;;;8.73;;
33459;SDS011;19795;53.160;6.612;2022-11-20T18:25:21;18.63;;;10.20;;
33459;SDS011;19795;53.160;6.612;2022-11-20T18:27:47;17.17;;;9.13;;
33459;SDS011;19795;53.160;6.612;2022-11-20T18:30:13;17.58;;;9.50;;
33459;SDS011;19795;53.160;6.612;2022-11-20T18:32:39;19.92;;;10.25;;
33459;SDS011;19795;53.160;6.612;2022-11-20T18:35:05;17.92;;;9.45;;
33459;SDS011;19795;53.160;6.612;2022-11-20T18:37:31;16.23;;;9.70;;
33459;SDS011;19795;53.160;6.612;2022-11-20T18:39:56;16.17;;;9.23;;
33459;SDS011;19795;53.160;6.612;2022-11-20T18:42:22;18.75;;;10.48;;
33459;SDS011;19795;53.160;6.612;2022-11-20T18:45:06;18.48;;;9.63;;
33459;SDS011;19795;53.160;6.612;2022-11-20T18:47:33;20.00;;;10.35;;
33459;SDS011;19795;53.160;6.612;2022-11-20T18:50:02;18.77;;;10.95;;
33459;SDS011;19795;53.160;6.612;2022-11-20T18:52:33;18.77;;;9.88;;
33459;SDS011;19795;53.160;6.612;2022-11-20T18:55:02;19.97;;;10.63;;
33459;SDS011;19795;53.160;6.612;2022-11-20T18:57:29;18.90;;;10.05;;
33459;SDS011;19795;53.160;6.612;2022-11-20T18:59:55;18.80;;;10.70;;
33459;SDS011;19795;53.160;6.612;2022-11-20T19:02:25;17.88;;;9.77;;
33459;SDS011;19795;53.160;6.612;2022-11-20T19:04:52;18.98;;;10.60;;
33459;SDS011;19795;53.160;6.612;2022-11-20T19:07:18;18.95;;;10.50;;
33459;SDS011;19795;53.160;6.612;2022-11-20T19:09:50;16.52;;;9.32;;
33459;SDS011;19795;53.160;6.612;2022-11-20T19:12:16;20.23;;;10.32;;
33459;SDS011;19795;53.160;6.612;2022-11-20T19:14:43;24.88;;;11.55;;
33459;SDS011;19795;53.160;6.612;2022-11-20T19:17:09;20.30;;;11.15;;
33459;SDS011;19795;53.160;6.612;2022-11-20T19:19:38;19.58;;;10.07;;
33459;SDS011;19795;53.160;6.612;2022-11-20T19:22:04;20.58;;;11.18;;
33459;SDS011;19795;53.160;6.612;2022-11-20T19:24:29;18.73;;;9.55;;
33459;SDS011;19795;53.160;6.612;2022-11-20T19:26:55;36.00;;;15.80;;
33459;SDS011;19795;53.160;6.612;2022-11-20T19:29:22;24.00;;;11.82;;
33459;SDS011;19795;53.160;6.612;2022-11-20T19:31:48;18.70;;;11.43;;
33459;SDS011;19795;53.160;6.612;2022-11-20T19:34:14;21.02;;;11.35;;
33459;SDS011;19795;53.160;6.612;2022-11-20T19:36:41;20.85;;;11.57;;
33459;SDS011;19795;53.160;6.612;2022-11-20T19:39:08;19.92;;;11.45;;
33459;SDS011;19795;53.160;6.612;2022-11-20T19:41:36;22.42;;;11.25;;
33459;SDS011;19795;53.160;6.612;2022-11-20T19:44:06;25.27;;;12.88;;
33459;SDS011;19795;53.160;6.612;2022-11-20T19:46:38;23.20;;;11.82;;
33459;SDS011;19795;53.160;6.612;2022-11-20T19:49:05;21.13;;;11.20;;
33459;SDS011;19795;53.160;6.612;2022-11-20T19:51:34;24.13;;;12.55;;
33459;SDS011;19795;53.160;6.612;2022-11-20T19:54:01;25.13;;;12.95;;
33459;SDS011;19795;53.160;6.612;2022-11-20T19:56:27;27.63;;;12.15;;
33459;SDS011;19795;53.160;6.612;2022-11-20T19:58:55;25.30;;;12.90;;
33459;SDS011;19795;53.160;6.612;2022-11-20T20:01:23;23.35;;;11.88;;
33459;SDS011;19795;53.160;6.612;2022-11-20T20:03:50;21.95;;;12.10;;
33459;SDS011;19795;53.160;6.612;2022-11-20T20:06:17;26.90;;;13.07;;
33459;SDS011;19795;53.160;6.612;2022-11-20T20:08:45;26.50;;;13.82;;
33459;SDS011;19795;53.160;6.612;2022-11-20T20:13:38;26.92;;;13.73;;
33459;SDS011;19795;53.160;6.612;2022-11-20T20:16:07;25.88;;;15.13;;
33459;SDS011;19795;53.160;6.612;2022-11-20T20:18:34;25.50;;;13.25;;
33459;SDS011;19795;53.160;6.612;2022-11-20T20:21:01;26.50;;;14.00;;
33459;SDS011;19795;53.160;6.612;2022-11-20T20:23:36;28.50;;;13.98;;
33459;SDS011;19795;53.160;6.612;2022-11-20T20:26:03;21.33;;;11.43;;
33459;SDS011;19795;53.160;6.612;2022-11-20T20:28:30;23.05;;;11.77;;
33459;SDS011;19795;53.160;6.612;2022-11-20T20:30:56;23.73;;;12.18;;
33459;SDS011;19795;53.160;6.612;2022-11-20T20:33:29;24.40;;;13.02;;
33459;SDS011;19795;53.160;6.612;2022-11-20T20:35:54;29.05;;;14.63;;
33459;SDS011;19795;53.160;6.612;2022-11-20T20:38:22;26.05;;;14.52;;
33459;SDS011;19795;53.160;6.612;2022-11-20T20:40:48;25.42;;;12.40;;
33459;SDS011;19795;53.160;6.612;2022-11-20T20:43:14;25.75;;;12.52;;
33459;SDS011;19795;53.160;6.612;2022-11-20T20:45:47;22.35;;;11.77;;
33459;SDS011;19795;53.160;6.612;2022-11-20T20:48:14;24.67;;;13.45;;
33459;SDS011;19795;53.160;6.612;2022-11-20T20:50:57;25.67;;;12.38;;
33459;SDS011;19795;53.160;6.612;2022-11-20T20:53:25;28.08;;;14.85;;
33459;SDS011;19795;53.160;6.612;2022-11-20T20:55:59;30.60;;;13.70;;
33459;SDS011;19795;53.160;6.612;2022-11-20T20:58:26;23.42;;;12.13;;
33459;SDS011;19795;53.160;6.612;2022-11-20T21:00:53;29.95;;;15.15;;
33459;SDS011;19795;53.160;6.612;2022-11-20T21:03:24;27.35;;;14.32;;
33459;SDS011;19795;53.160;6.612;2022-11-20T21:05:54;26.45;;;13.77;;
33459;SDS011;19795;53.160;6.612;2022-11-20T21:08:21;26.77;;;13.63;;
33459;SDS011;19795;53.160;6.612;2022-11-20T21:10:51;24.92;;;12.90;;
33459;SDS011;19795;53.160;6.612;2022-11-20T21:13:17;27.25;;;14.80;;
33459;SDS011;19795;53.160;6.612;2022-11-20T21:15:47;30.90;;;17.40;;
